This is the latest recevied weather packets stored in our database for station/object EA3ABN-1. If no packets are shown the sender has not sent any weather packets the latest 10 day(s).
| Time | Temp. | Humidity | Pressure | Rain* | Wind** | Luminosity | Snow |
|---|---|---|---|---|---|---|---|
| 1777645504 | 30° C | 33% | 1018.3 hPa | - | - | - | - |
| 1777644288 | 30° C | 32% | 1018.4 hPa | - | - | - | - |
| 1777641604 | 30° C | 32% | 1018.3 hPa | - | - | - | - |
| 1777640388 | 30° C | 32% | 1018.4 hPa | - | - | - | - |
| 1777640088 | 30° C | 32% | 1018.5 hPa | - | - | - | - |
| 1777638305 | 30° C | 32% | 1018.3 hPa | - | - | - | - |
| 1777638004 | 30° C | 32% | 1018.3 hPa | - | - | - | - |
| 1777637688 | 30° C | 32% | 1018.4 hPa | - | - | - | - |
| 1777637088 | 29.44° C | 32% | 1018.3 hPa | - | - | - | - |
| 1777636488 | 29.44° C | 32% | 1018.5 hPa | - | - | - | - |
| 1777636188 | 30° C | 32% | 1018.5 hPa | - | - | - | - |
| 1777635288 | 29.44° C | 32% | 1018.5 hPa | - | - | - | - |
| 1777634688 | 29.44° C | 32% | 1018.5 hPa | - | - | - | - |
| 1777633803 | 29.44° C | 32% | 1018.7 hPa | - | - | - | - |
| 1777633188 | 29.44° C | 32% | 1018.9 hPa | - | - | - | - |
| 1777631393 | 28.89° C | 32% | 1018.9 hPa | - | - | - | - |
| 1777628387 | 28.33° C | 33% | 1018.9 hPa | - | - | - | - |
| 1777627488 | 28.33° C | 33% | 1018.9 hPa | - | - | - | - |
| 1777626888 | 27.78° C | 34% | 1018.8 hPa | - | - | - | - |
| 1777625088 | 27.22° C | 34% | 1018.9 hPa | - | - | - | - |
| 1777619687 | 23.89° C | 35% | 1018.5 hPa | - | - | - | - |
| 1777618203 | 22.22° C | 35% | 1018.5 hPa | - | - | - | - |
| 1777615788 | 20.56° C | 33% | 1018.6 hPa | - | - | - | - |
| 1777614587 | 20° C | 32% | 1018.5 hPa | - | - | - | - |
| 1777613388 | 20° C | 32% | 1018.4 hPa | - | - | - | - |
* Rain since midnight (hover to see other rain measurements)
** Current wind speed in m/s (hover to see current wind gust speed)